sensor_id;sensor_type;location;lat;lon;timestamp;temperature;humidity
10905;DHT22;5505;51.450;9.254;2023-01-10T00:01:15;5.30;99.90
10905;DHT22;5505;51.450;9.254;2023-01-10T00:04:02;5.40;99.90
10905;DHT22;5505;51.450;9.254;2023-01-10T00:06:49;5.30;99.90
10905;DHT22;5505;51.450;9.254;2023-01-10T00:09:37;5.40;99.90
10905;DHT22;5505;51.450;9.254;2023-01-10T00:12:24;6.70;99.90
10905;DHT22;5505;51.450;9.254;2023-01-10T00:15:34;5.30;99.90
10905;DHT22;5505;51.450;9.254;2023-01-10T00:18:21;5.40;99.90
10905;DHT22;5505;51.450;9.254;2023-01-10T00:21:08;5.40;99.90
10905;DHT22;5505;51.450;9.254;2023-01-10T00:23:56;5.30;99.90
10905;DHT22;5505;51.450;9.254;2023-01-10T00:26:46;6.10;99.90
10905;DHT22;5505;51.450;9.254;2023-01-10T00:29:36;5.30;99.90
10905;DHT22;5505;51.450;9.254;2023-01-10T00:32:23;5.30;99.90
10905;DHT22;5505;51.450;9.254;2023-01-10T00:35:11;5.20;99.90
10905;DHT22;5505;51.450;9.254;2023-01-10T00:37:58;5.20;99.90
10905;DHT22;5505;51.450;9.254;2023-01-10T00:40:50;5.20;99.90
10905;DHT22;5505;51.450;9.254;2023-01-10T00:43:38;5.20;99.90
10905;DHT22;5505;51.450;9.254;2023-01-10T00:46:47;5.20;99.90
10905;DHT22;5505;51.450;9.254;2023-01-10T00:49:34;5.30;99.90
10905;DHT22;5505;51.450;9.254;2023-01-10T00:52:21;5.30;99.90
10905;DHT22;5505;51.450;9.254;2023-01-10T00:55:08;5.30;99.90
10905;DHT22;5505;51.450;9.254;2023-01-10T00:57:55;5.30;99.90
10905;DHT22;5505;51.450;9.254;2023-01-10T01:00:43;5.20;99.90
10905;DHT22;5505;51.450;9.254;2023-01-10T01:03:31;5.30;99.90
10905;DHT22;5505;51.450;9.254;2023-01-10T01:06:18;5.20;99.90
10905;DHT22;5505;51.450;9.254;2023-01-10T01:09:04;5.40;99.90
10905;DHT22;5505;51.450;9.254;2023-01-10T01:11:51;5.30;99.90
10905;DHT22;5505;51.450;9.254;2023-01-10T01:14:38;5.20;99.90
10905;DHT22;5505;51.450;9.254;2023-01-10T01:17:26;5.20;99.90
10905;DHT22;5505;51.450;9.254;2023-01-10T01:20:13;5.20;99.90
10905;DHT22;5505;51.450;9.254;2023-01-10T01:23:00;5.20;99.90
10905;DHT22;5505;51.450;9.254;2023-01-10T01:25:49;5.20;99.90
10905;DHT22;5505;51.450;9.254;2023-01-10T01:28:36;5.30;99.90
10905;DHT22;5505;51.450;9.254;2023-01-10T01:31:23;5.30;99.90
10905;DHT22;5505;51.450;9.254;2023-01-10T01:34:11;5.30;99.90
10905;DHT22;5505;51.450;9.254;2023-01-10T01:36:59;5.30;99.90
10905;DHT22;5505;51.450;9.254;2023-01-10T01:39:45;5.40;99.90
10905;DHT22;5505;51.450;9.254;2023-01-10T01:42:34;5.40;99.90
10905;DHT22;5505;51.450;9.254;2023-01-10T01:45:32;5.40;99.90
10905;DHT22;5505;51.450;9.254;2023-01-10T01:48:24;5.40;99.90
10905;DHT22;5505;51.450;9.254;2023-01-10T01:51:17;5.40;99.90
10905;DHT22;5505;51.450;9.254;2023-01-10T01:54:07;5.40;99.90
10905;DHT22;5505;51.450;9.254;2023-01-10T01:56:59;8.00;99.90
10905;DHT22;5505;51.450;9.254;2023-01-10T01:59:51;5.50;99.90
10905;DHT22;5505;51.450;9.254;2023-01-10T02:02:43;5.40;99.90
10905;DHT22;5505;51.450;9.254;2023-01-10T02:05:32;6.90;99.90
10905;DHT22;5505;51.450;9.254;2023-01-10T02:08:21;5.40;99.90
10905;DHT22;5505;51.450;9.254;2023-01-10T02:11:09;5.40;99.90
10905;DHT22;5505;51.450;9.254;2023-01-10T02:13:57;5.40;99.90
10905;DHT22;5505;51.450;9.254;2023-01-10T02:16:44;5.40;99.90
10905;DHT22;5505;51.450;9.254;2023-01-10T02:19:40;5.40;99.90
10905;DHT22;5505;51.450;9.254;2023-01-10T02:22:49;5.30;99.90
10905;DHT22;5505;51.450;9.254;2023-01-10T02:29:21;5.40;99.90
10905;DHT22;5505;51.450;9.254;2023-01-10T02:32:33;5.40;99.90
10905;DHT22;5505;51.450;9.254;2023-01-10T02:35:47;5.40;99.90
10905;DHT22;5505;51.450;9.254;2023-01-10T02:38:45;5.40;99.90
10905;DHT22;5505;51.450;9.254;2023-01-10T02:41:40;5.40;99.90
10905;DHT22;5505;51.450;9.254;2023-01-10T02:44:37;5.40;99.90
10905;DHT22;5505;51.450;9.254;2023-01-10T02:47:34;5.40;99.90
10905;DHT22;5505;51.450;9.254;2023-01-10T02:50:29;5.40;99.90
10905;DHT22;5505;51.450;9.254;2023-01-10T02:53:21;5.40;99.90
10905;DHT22;5505;51.450;9.254;2023-01-10T02:59:57;5.40;99.90
10905;DHT22;5505;51.450;9.254;2023-01-10T03:03:02;5.30;99.90
10905;DHT22;5505;51.450;9.254;2023-01-10T04:05:09;5.30;99.90
10905;DHT22;5505;51.450;9.254;2023-01-10T04:07:56;5.40;99.90
10905;DHT22;5505;51.450;9.254;2023-01-10T04:10:43;5.30;99.90
10905;DHT22;5505;51.450;9.254;2023-01-10T04:13:30;5.30;99.90
10905;DHT22;5505;51.450;9.254;2023-01-10T04:16:19;5.30;99.90
10905;DHT22;5505;51.450;9.254;2023-01-10T04:19:06;5.30;99.90
10905;DHT22;5505;51.450;9.254;2023-01-10T04:21:54;5.30;99.90
10905;DHT22;5505;51.450;9.254;2023-01-10T04:24:41;5.30;99.90
10905;DHT22;5505;51.450;9.254;2023-01-10T04:27:28;5.40;99.90
10905;DHT22;5505;51.450;9.254;2023-01-10T04:30:15;5.30;99.90
10905;DHT22;5505;51.450;9.254;2023-01-10T04:33:02;5.40;99.90
10905;DHT22;5505;51.450;9.254;2023-01-10T04:35:50;5.40;99.90
10905;DHT22;5505;51.450;9.254;2023-01-10T04:38:38;5.30;99.90
10905;DHT22;5505;51.450;9.254;2023-01-10T04:41:25;5.40;99.90
10905;DHT22;5505;51.450;9.254;2023-01-10T04:44:12;5.40;99.90
10905;DHT22;5505;51.450;9.254;2023-01-10T04:46:58;5.50;99.90
10905;DHT22;5505;51.450;9.254;2023-01-10T04:49:47;5.40;99.90
10905;DHT22;5505;51.450;9.254;2023-01-10T04:52:34;5.40;99.90
10905;DHT22;5505;51.450;9.254;2023-01-10T04:55:22;5.30;99.90
10905;DHT22;5505;51.450;9.254;2023-01-10T04:58:08;5.40;99.90
10905;DHT22;5505;51.450;9.254;2023-01-10T05:00:55;5.40;99.90
10905;DHT22;5505;51.450;9.254;2023-01-10T05:03:42;5.30;99.90
10905;DHT22;5505;51.450;9.254;2023-01-10T05:06:29;5.30;99.90
10905;DHT22;5505;51.450;9.254;2023-01-10T05:09:16;5.30;99.90
10905;DHT22;5505;51.450;9.254;2023-01-10T05:12:07;5.20;99.90
10905;DHT22;5505;51.450;9.254;2023-01-10T05:14:54;5.30;99.90
10905;DHT22;5505;51.450;9.254;2023-01-10T05:17:41;5.20;99.90
10905;DHT22;5505;51.450;9.254;2023-01-10T05:20:27;5.20;99.90
10905;DHT22;5505;51.450;9.254;2023-01-10T05:23:14;5.20;99.90
10905;DHT22;5505;51.450;9.254;2023-01-10T05:26:05;5.20;99.90
10905;DHT22;5505;51.450;9.254;2023-01-10T05:28:53;5.20;99.90
10905;DHT22;5505;51.450;9.254;2023-01-10T05:31:40;5.20;99.90
10905;DHT22;5505;51.450;9.254;2023-01-10T05:34:27;5.20;99.90
10905;DHT22;5505;51.450;9.254;2023-01-10T05:37:14;5.20;99.90
10905;DHT22;5505;51.450;9.254;2023-01-10T05:40:00;5.30;99.90
10905;DHT22;5505;51.450;9.254;2023-01-10T05:42:47;5.30;99.90
10905;DHT22;5505;51.450;9.254;2023-01-10T05:45:35;5.30;99.90
10905;DHT22;5505;51.450;9.254;2023-01-10T05:48:22;5.30;99.90
10905;DHT22;5505;51.450;9.254;2023-01-10T05:51:09;5.30;99.90
10905;DHT22;5505;51.450;9.254;2023-01-10T05:53:56;5.30;99.90
10905;DHT22;5505;51.450;9.254;2023-01-10T05:56:43;5.20;99.90
10905;DHT22;5505;51.450;9.254;2023-01-10T05:59:30;5.30;99.90
10905;DHT22;5505;51.450;9.254;2023-01-10T06:02:18;5.30;99.90
10905;DHT22;5505;51.450;9.254;2023-01-10T06:05:05;7.00;99.90
10905;DHT22;5505;51.450;9.254;2023-01-10T06:07:52;5.30;99.90
10905;DHT22;5505;51.450;9.254;2023-01-10T06:10:39;5.20;99.90
10905;DHT22;5505;51.450;9.254;2023-01-10T06:13:25;5.20;99.90
10905;DHT22;5505;51.450;9.254;2023-01-10T06:16:12;5.20;99.90
10905;DHT22;5505;51.450;9.254;2023-01-10T06:19:00;5.20;99.90
10905;DHT22;5505;51.450;9.254;2023-01-10T06:21:47;5.20;99.90
10905;DHT22;5505;51.450;9.254;2023-01-10T06:24:34;5.30;99.90
10905;DHT22;5505;51.450;9.254;2023-01-10T06:27:21;5.20;99.90
10905;DHT22;5505;51.450;9.254;2023-01-10T06:30:09;5.20;99.90
10905;DHT22;5505;51.450;9.254;2023-01-10T06:32:59;5.20;99.90
10905;DHT22;5505;51.450;9.254;2023-01-10T06:35:48;5.10;99.90
10905;DHT22;5505;51.450;9.254;2023-01-10T06:38:34;5.10;99.90
10905;DHT22;5505;51.450;9.254;2023-01-10T06:41:21;5.10;99.90
10905;DHT22;5505;51.450;9.254;2023-01-10T06:44:08;5.20;99.90
10905;DHT22;5505;51.450;9.254;2023-01-10T06:46:55;6.40;99.90
10905;DHT22;5505;51.450;9.254;2023-01-10T06:49:42;5.60;99.90
10905;DHT22;5505;51.450;9.254;2023-01-10T06:52:30;5.20;99.90
10905;DHT22;5505;51.450;9.254;2023-01-10T06:55:17;5.10;99.90
10905;DHT22;5505;51.450;9.254;2023-01-10T06:58:04;6.80;99.90
10905;DHT22;5505;51.450;9.254;2023-01-10T07:00:51;5.20;99.90
10905;DHT22;5505;51.450;9.254;2023-01-10T07:03:38;5.10;99.90
10905;DHT22;5505;51.450;9.254;2023-01-10T07:06:25;5.80;99.90
10905;DHT22;5505;51.450;9.254;2023-01-10T07:09:13;5.10;99.90
10905;DHT22;5505;51.450;9.254;2023-01-10T07:12:00;5.10;99.90
10905;DHT22;5505;51.450;9.254;2023-01-10T07:14:47;5.00;99.90
10905;DHT22;5505;51.450;9.254;2023-01-10T07:17:33;5.90;99.90
10905;DHT22;5505;51.450;9.254;2023-01-10T07:20:20;4.90;99.90
10905;DHT22;5505;51.450;9.254;2023-01-10T07:23:08;5.10;99.90
10905;DHT22;5505;51.450;9.254;2023-01-10T07:25:57;5.10;99.90
10905;DHT22;5505;51.450;9.254;2023-01-10T07:28:44;5.10;99.90
10905;DHT22;5505;51.450;9.254;2023-01-10T07:31:31;5.00;99.90
10905;DHT22;5505;51.450;9.254;2023-01-10T07:34:18;5.00;99.90
10905;DHT22;5505;51.450;9.254;2023-01-10T07:37:04;5.00;99.90
10905;DHT22;5505;51.450;9.254;2023-01-10T07:39:51;4.90;99.90
10905;DHT22;5505;51.450;9.254;2023-01-10T07:42:39;6.60;99.90
10905;DHT22;5505;51.450;9.254;2023-01-10T07:45:27;4.90;99.90
10905;DHT22;5505;51.450;9.254;2023-01-10T07:48:14;4.90;99.90
10905;DHT22;5505;51.450;9.254;2023-01-10T07:51:01;4.90;99.90
10905;DHT22;5505;51.450;9.254;2023-01-10T07:53:48;4.90;99.90
10905;DHT22;5505;51.450;9.254;2023-01-10T07:56:35;4.90;99.90
10905;DHT22;5505;51.450;9.254;2023-01-10T07:59:23;4.90;99.90
10905;DHT22;5505;51.450;9.254;2023-01-10T08:02:10;4.80;99.90
10905;DHT22;5505;51.450;9.254;2023-01-10T08:04:57;4.80;99.90
10905;DHT22;5505;51.450;9.254;2023-01-10T08:07:44;4.80;99.90
10905;DHT22;5505;51.450;9.254;2023-01-10T08:10:31;4.80;99.90
10905;DHT22;5505;51.450;9.254;2023-01-10T08:13:18;4.80;99.90
10905;DHT22;5505;51.450;9.254;2023-01-10T08:16:07;4.70;99.90
10905;DHT22;5505;51.450;9.254;2023-01-10T08:18:54;4.70;99.90
10905;DHT22;5505;51.450;9.254;2023-01-10T08:21:40;4.70;99.90
10905;DHT22;5505;51.450;9.254;2023-01-10T08:24:29;4.80;99.90
10905;DHT22;5505;51.450;9.254;2023-01-10T08:27:16;4.90;99.90
10905;DHT22;5505;51.450;9.254;2023-01-10T08:30:03;4.80;99.90
10905;DHT22;5505;51.450;9.254;2023-01-10T08:32:51;4.80;99.90
10905;DHT22;5505;51.450;9.254;2023-01-10T08:35:39;4.80;99.90
10905;DHT22;5505;51.450;9.254;2023-01-10T08:38:27;5.10;99.90
10905;DHT22;5505;51.450;9.254;2023-01-10T08:41:14;7.80;99.90
10905;DHT22;5505;51.450;9.254;2023-01-10T08:44:01;6.40;99.90
10905;DHT22;5505;51.450;9.254;2023-01-10T08:46:47;4.80;99.90
10905;DHT22;5505;51.450;9.254;2023-01-10T08:49:36;4.90;99.90
10905;DHT22;5505;51.450;9.254;2023-01-10T08:52:22;4.90;99.90
10905;DHT22;5505;51.450;9.254;2023-01-10T08:55:09;5.00;99.90
10905;DHT22;5505;51.450;9.254;2023-01-10T08:57:58;5.00;99.90
10905;DHT22;5505;51.450;9.254;2023-01-10T09:00:44;5.10;99.90
10905;DHT22;5505;51.450;9.254;2023-01-10T09:03:31;5.10;99.90
10905;DHT22;5505;51.450;9.254;2023-01-10T09:06:19;5.10;99.90
10905;DHT22;5505;51.450;9.254;2023-01-10T09:09:06;5.10;99.90
10905;DHT22;5505;51.450;9.254;2023-01-10T09:11:54;5.60;99.90
10905;DHT22;5505;51.450;9.254;2023-01-10T09:14:41;6.40;99.90
10905;DHT22;5505;51.450;9.254;2023-01-10T09:17:28;5.20;99.90
10905;DHT22;5505;51.450;9.254;2023-01-10T09:20:15;5.20;99.90
10905;DHT22;5505;51.450;9.254;2023-01-10T09:23:08;5.20;99.90
10905;DHT22;5505;51.450;9.254;2023-01-10T09:25:55;5.20;99.90
10905;DHT22;5505;51.450;9.254;2023-01-10T09:28:42;5.20;99.90
10905;DHT22;5505;51.450;9.254;2023-01-10T09:31:29;5.20;99.90
10905;DHT22;5505;51.450;9.254;2023-01-10T09:34:15;5.30;99.90
10905;DHT22;5505;51.450;9.254;2023-01-10T09:37:02;5.40;99.90
10905;DHT22;5505;51.450;9.254;2023-01-10T09:39:50;5.60;99.90
10905;DHT22;5505;51.450;9.254;2023-01-10T09:42:50;5.40;99.90
10905;DHT22;5505;51.450;9.254;2023-01-10T09:45:47;5.50;99.90
10905;DHT22;5505;51.450;9.254;2023-01-10T09:48:43;5.60;99.90
10905;DHT22;5505;51.450;9.254;2023-01-10T09:51:36;5.60;99.90
10905;DHT22;5505;51.450;9.254;2023-01-10T09:54:26;5.60;99.90
10905;DHT22;5505;51.450;9.254;2023-01-10T09:57:18;5.60;99.90
10905;DHT22;5505;51.450;9.254;2023-01-10T10:00:07;5.70;99.90
10905;DHT22;5505;51.450;9.254;2023-01-10T10:02:54;5.70;99.90
10905;DHT22;5505;51.450;9.254;2023-01-10T10:05:42;7.50;99.90
10905;DHT22;5505;51.450;9.254;2023-01-10T10:08:29;5.80;99.90
10905;DHT22;5505;51.450;9.254;2023-01-10T10:14:43;5.80;99.90
10905;DHT22;5505;51.450;9.254;2023-01-10T10:17:40;5.90;99.90
10905;DHT22;5505;51.450;9.254;2023-01-10T10:20:40;6.90;99.90
10905;DHT22;5505;51.450;9.254;2023-01-10T10:24:08;6.00;99.90
10905;DHT22;5505;51.450;9.254;2023-01-10T10:27:03;6.10;99.90
10905;DHT22;5505;51.450;9.254;2023-01-10T10:33:00;6.20;99.90
10905;DHT22;5505;51.450;9.254;2023-01-10T10:35:54;6.30;99.90
10905;DHT22;5505;51.450;9.254;2023-01-10T10:38:45;6.30;99.90
10905;DHT22;5505;51.450;9.254;2023-01-10T10:41:35;6.30;99.90
10905;DHT22;5505;51.450;9.254;2023-01-10T10:44:31;6.50;99.90
10905;DHT22;5505;51.450;9.254;2023-01-10T10:47:21;6.60;99.90
10905;DHT22;5505;51.450;9.254;2023-01-10T10:50:17;7.70;99.90
10905;DHT22;5505;51.450;9.254;2023-01-10T10:53:05;6.80;99.90
10905;DHT22;5505;51.450;9.254;2023-01-10T10:55:52;6.80;99.90
10905;DHT22;5505;51.450;9.254;2023-01-10T10:58:42;6.90;99.90
10905;DHT22;5505;51.450;9.254;2023-01-10T11:01:29;7.00;99.90
10905;DHT22;5505;51.450;9.254;2023-01-10T11:04:18;6.90;99.90
10905;DHT22;5505;51.450;9.254;2023-01-10T11:07:11;8.50;99.90
10905;DHT22;5505;51.450;9.254;2023-01-10T11:10:02;7.00;99.90
10905;DHT22;5505;51.450;9.254;2023-01-10T11:13:20;7.00;99.90
10905;DHT22;5505;51.450;9.254;2023-01-10T11:16:23;7.00;99.90
10905;DHT22;5505;51.450;9.254;2023-01-10T11:19:16;6.90;99.90
10905;DHT22;5505;51.450;9.254;2023-01-10T11:22:05;6.90;99.90
10905;DHT22;5505;51.450;9.254;2023-01-10T11:24:55;6.80;99.90
10905;DHT22;5505;51.450;9.254;2023-01-10T11:27:46;6.90;99.90
10905;DHT22;5505;51.450;9.254;2023-01-10T11:30:34;6.80;99.90
10905;DHT22;5505;51.450;9.254;2023-01-10T11:33:26;6.80;99.90
10905;DHT22;5505;51.450;9.254;2023-01-10T11:36:13;6.90;99.90
10905;DHT22;5505;51.450;9.254;2023-01-10T11:39:01;6.80;99.90
10905;DHT22;5505;51.450;9.254;2023-01-10T11:41:50;6.80;99.90
10905;DHT22;5505;51.450;9.254;2023-01-10T11:44:37;6.70;99.90
10905;DHT22;5505;51.450;9.254;2023-01-10T11:47:24;6.60;99.90
10905;DHT22;5505;51.450;9.254;2023-01-10T11:50:14;6.60;99.90
10905;DHT22;5505;51.450;9.254;2023-01-10T11:53:04;6.60;99.90
10905;DHT22;5505;51.450;9.254;2023-01-10T11:55:51;6.60;99.90
10905;DHT22;5505;51.450;9.254;2023-01-10T11:58:40;6.50;99.90
10905;DHT22;5505;51.450;9.254;2023-01-10T12:01:30;6.50;99.90
10905;DHT22;5505;51.450;9.254;2023-01-10T12:04:20;6.50;99.90
10905;DHT22;5505;51.450;9.254;2023-01-10T12:07:10;6.50;99.90
10905;DHT22;5505;51.450;9.254;2023-01-10T12:09:59;6.40;99.90
10905;DHT22;5505;51.450;9.254;2023-01-10T12:12:52;6.40;99.90
10905;DHT22;5505;51.450;9.254;2023-01-10T12:15:41;6.40;99.90
10905;DHT22;5505;51.450;9.254;2023-01-10T12:18:28;6.40;99.90
10905;DHT22;5505;51.450;9.254;2023-01-10T12:21:19;6.40;99.90
10905;DHT22;5505;51.450;9.254;2023-01-10T12:24:13;6.40;99.90
10905;DHT22;5505;51.450;9.254;2023-01-10T12:27:02;6.40;99.90
10905;DHT22;5505;51.450;9.254;2023-01-10T12:29:57;6.40;99.90
10905;DHT22;5505;51.450;9.254;2023-01-10T12:32:48;6.40;99.90
10905;DHT22;5505;51.450;9.254;2023-01-10T12:35:39;6.40;99.90
10905;DHT22;5505;51.450;9.254;2023-01-10T12:38:31;6.40;99.90
10905;DHT22;5505;51.450;9.254;2023-01-10T12:41:43;6.40;99.90
10905;DHT22;5505;51.450;9.254;2023-01-10T12:44:51;6.30;99.90
10905;DHT22;5505;51.450;9.254;2023-01-10T12:47:54;8.40;99.90
10905;DHT22;5505;51.450;9.254;2023-01-10T12:50:44;6.30;99.90
10905;DHT22;5505;51.450;9.254;2023-01-10T12:53:35;6.30;99.90
10905;DHT22;5505;51.450;9.254;2023-01-10T12:56:23;6.30;99.90
10905;DHT22;5505;51.450;9.254;2023-01-10T12:59:16;6.30;99.90
10905;DHT22;5505;51.450;9.254;2023-01-10T13:02:06;6.30;99.90
10905;DHT22;5505;51.450;9.254;2023-01-10T13:05:01;6.30;99.90
10905;DHT22;5505;51.450;9.254;2023-01-10T13:07:49;6.30;99.90
10905;DHT22;5505;51.450;9.254;2023-01-10T13:10:40;6.30;99.90
10905;DHT22;5505;51.450;9.254;2023-01-10T13:13:32;6.30;99.90
10905;DHT22;5505;51.450;9.254;2023-01-10T13:16:29;6.30;99.90
10905;DHT22;5505;51.450;9.254;2023-01-10T13:19:23;6.30;99.90
10905;DHT22;5505;51.450;9.254;2023-01-10T13:22:20;6.30;99.90
10905;DHT22;5505;51.450;9.254;2023-01-10T13:25:18;6.30;99.90
10905;DHT22;5505;51.450;9.254;2023-01-10T13:28:18;7.10;99.90
10905;DHT22;5505;51.450;9.254;2023-01-10T13:31:19;6.40;99.90
10905;DHT22;5505;51.450;9.254;2023-01-10T13:34:10;6.40;99.90
10905;DHT22;5505;51.450;9.254;2023-01-10T13:37:00;8.40;99.90
10905;DHT22;5505;51.450;9.254;2023-01-10T13:39:52;6.40;99.90
10905;DHT22;5505;51.450;9.254;2023-01-10T13:42:40;6.40;99.90
10905;DHT22;5505;51.450;9.254;2023-01-10T13:45:44;6.40;99.90
10905;DHT22;5505;51.450;9.254;2023-01-10T13:48:31;6.40;99.90
10905;DHT22;5505;51.450;9.254;2023-01-10T13:51:20;6.40;99.90
10905;DHT22;5505;51.450;9.254;2023-01-10T13:54:25;6.40;99.90
10905;DHT22;5505;51.450;9.254;2023-01-10T14:00:50;6.30;99.90
10905;DHT22;5505;51.450;9.254;2023-01-10T14:03:55;6.20;99.90
10905;DHT22;5505;51.450;9.254;2023-01-10T14:06:43;7.90;99.90
10905;DHT22;5505;51.450;9.254;2023-01-10T14:09:40;6.20;99.90
10905;DHT22;5505;51.450;9.254;2023-01-10T14:12:32;6.20;99.90
10905;DHT22;5505;51.450;9.254;2023-01-10T14:15:22;6.20;99.90
10905;DHT22;5505;51.450;9.254;2023-01-10T14:18:19;6.10;99.90
10905;DHT22;5505;51.450;9.254;2023-01-10T14:21:08;6.70;99.90
10905;DHT22;5505;51.450;9.254;2023-01-10T14:23:56;6.10;99.90
10905;DHT22;5505;51.450;9.254;2023-01-10T14:26:43;6.10;99.90
10905;DHT22;5505;51.450;9.254;2023-01-10T14:29:32;6.10;99.90
10905;DHT22;5505;51.450;9.254;2023-01-10T14:32:30;6.10;99.90
10905;DHT22;5505;51.450;9.254;2023-01-10T14:35:21;5.90;99.90
10905;DHT22;5505;51.450;9.254;2023-01-10T14:38:17;5.90;99.90
10905;DHT22;5505;51.450;9.254;2023-01-10T14:41:10;7.80;99.90
10905;DHT22;5505;51.450;9.254;2023-01-10T14:44:01;5.90;99.90
10905;DHT22;5505;51.450;9.254;2023-01-10T14:46:50;5.90;99.90
10905;DHT22;5505;51.450;9.254;2023-01-10T14:49:48;5.80;99.90
10905;DHT22;5505;51.450;9.254;2023-01-10T14:52:41;5.80;99.90
10905;DHT22;5505;51.450;9.254;2023-01-10T14:55:27;5.80;99.90
10905;DHT22;5505;51.450;9.254;2023-01-10T14:58:16;5.80;99.90
10905;DHT22;5505;51.450;9.254;2023-01-10T15:01:04;5.70;99.90
10905;DHT22;5505;51.450;9.254;2023-01-10T15:03:51;5.70;99.90
10905;DHT22;5505;51.450;9.254;2023-01-10T15:06:54;6.60;99.90
10905;DHT22;5505;51.450;9.254;2023-01-10T15:09:48;5.60;99.90
10905;DHT22;5505;51.450;9.254;2023-01-10T15:12:36;5.70;99.90
10905;DHT22;5505;51.450;9.254;2023-01-10T15:15:28;5.60;99.90
10905;DHT22;5505;51.450;9.254;2023-01-10T15:18:28;5.60;99.90
10905;DHT22;5505;51.450;9.254;2023-01-10T15:21:17;6.60;99.90
10905;DHT22;5505;51.450;9.254;2023-01-10T15:24:22;5.50;99.90
10905;DHT22;5505;51.450;9.254;2023-01-10T15:27:13;5.50;99.90
10905;DHT22;5505;51.450;9.254;2023-01-10T15:30:00;5.40;99.90
10905;DHT22;5505;51.450;9.254;2023-01-10T15:32:54;5.30;99.90
10905;DHT22;5505;51.450;9.254;2023-01-10T15:35:42;5.40;99.90
10905;DHT22;5505;51.450;9.254;2023-01-10T15:38:29;5.40;99.90
10905;DHT22;5505;51.450;9.254;2023-01-10T15:41:20;5.30;99.90
10905;DHT22;5505;51.450;9.254;2023-01-10T15:44:23;5.40;99.90
10905;DHT22;5505;51.450;9.254;2023-01-10T15:47:38;5.40;99.90
10905;DHT22;5505;51.450;9.254;2023-01-10T15:50:27;5.30;99.90
10905;DHT22;5505;51.450;9.254;2023-01-10T15:53:16;5.30;99.90
10905;DHT22;5505;51.450;9.254;2023-01-10T15:56:09;6.20;99.90
10905;DHT22;5505;51.450;9.254;2023-01-10T15:58:59;6.90;99.90
10905;DHT22;5505;51.450;9.254;2023-01-10T16:01:53;5.30;99.90
10905;DHT22;5505;51.450;9.254;2023-01-10T16:04:42;5.20;99.90
10905;DHT22;5505;51.450;9.254;2023-01-10T16:07:32;5.20;99.90
10905;DHT22;5505;51.450;9.254;2023-01-10T16:10:21;6.00;99.90
10905;DHT22;5505;51.450;9.254;2023-01-10T16:13:10;5.30;99.90
10905;DHT22;5505;51.450;9.254;2023-01-10T16:16:17;5.20;99.90
10905;DHT22;5505;51.450;9.254;2023-01-10T16:19:07;5.30;99.90
10905;DHT22;5505;51.450;9.254;2023-01-10T16:21:55;5.20;99.90
10905;DHT22;5505;51.450;9.254;2023-01-10T16:24:43;5.20;99.90
10905;DHT22;5505;51.450;9.254;2023-01-10T16:27:31;5.20;99.90
10905;DHT22;5505;51.450;9.254;2023-01-10T16:30:23;5.20;99.90
10905;DHT22;5505;51.450;9.254;2023-01-10T16:33:13;5.20;99.90
10905;DHT22;5505;51.450;9.254;2023-01-10T16:36:03;5.20;99.90
10905;DHT22;5505;51.450;9.254;2023-01-10T16:38:49;5.20;99.90
10905;DHT22;5505;51.450;9.254;2023-01-10T16:41:36;6.70;99.90
10905;DHT22;5505;51.450;9.254;2023-01-10T16:44:37;5.20;99.90
10905;DHT22;5505;51.450;9.254;2023-01-10T16:47:24;5.20;99.90
10905;DHT22;5505;51.450;9.254;2023-01-10T16:50:10;5.20;99.90
10905;DHT22;5505;51.450;9.254;2023-01-10T16:52:59;5.20;99.90
10905;DHT22;5505;51.450;9.254;2023-01-10T16:55:47;5.20;99.90
10905;DHT22;5505;51.450;9.254;2023-01-10T16:58:34;5.10;99.90
10905;DHT22;5505;51.450;9.254;2023-01-10T17:01:23;5.10;99.90
10905;DHT22;5505;51.450;9.254;2023-01-10T17:04:11;5.10;99.90
10905;DHT22;5505;51.450;9.254;2023-01-10T17:07:01;5.10;99.90
10905;DHT22;5505;51.450;9.254;2023-01-10T17:09:49;6.00;99.90
10905;DHT22;5505;51.450;9.254;2023-01-10T17:12:37;5.50;99.90
10905;DHT22;5505;51.450;9.254;2023-01-10T17:15:24;5.00;99.90
10905;DHT22;5505;51.450;9.254;2023-01-10T17:18:11;4.90;99.90
10905;DHT22;5505;51.450;9.254;2023-01-10T17:20:58;5.00;99.90
10905;DHT22;5505;51.450;9.254;2023-01-10T17:23:45;5.00;99.90
10905;DHT22;5505;51.450;9.254;2023-01-10T17:26:34;5.50;99.90
10905;DHT22;5505;51.450;9.254;2023-01-10T17:29:21;5.10;99.90
10905;DHT22;5505;51.450;9.254;2023-01-10T17:32:08;5.50;99.90
10905;DHT22;5505;51.450;9.254;2023-01-10T17:34:55;5.00;99.90
10905;DHT22;5505;51.450;9.254;2023-01-10T17:37:42;5.10;99.90
10905;DHT22;5505;51.450;9.254;2023-01-10T17:40:29;5.10;99.90
10905;DHT22;5505;51.450;9.254;2023-01-10T17:43:18;5.20;99.90
10905;DHT22;5505;51.450;9.254;2023-01-10T17:46:05;5.10;99.90
10905;DHT22;5505;51.450;9.254;2023-01-10T17:48:52;5.20;99.90
10905;DHT22;5505;51.450;9.254;2023-01-10T17:51:39;5.20;99.90
10905;DHT22;5505;51.450;9.254;2023-01-10T17:54:26;5.20;99.90
10905;DHT22;5505;51.450;9.254;2023-01-10T17:57:13;5.30;99.90
10905;DHT22;5505;51.450;9.254;2023-01-10T18:00:02;5.30;99.90
10905;DHT22;5505;51.450;9.254;2023-01-10T18:02:49;5.30;99.90
10905;DHT22;5505;51.450;9.254;2023-01-10T18:05:37;8.10;99.90
10905;DHT22;5505;51.450;9.254;2023-01-10T18:08:24;5.60;99.90
10905;DHT22;5505;51.450;9.254;2023-01-10T18:11:12;5.30;99.90
10905;DHT22;5505;51.450;9.254;2023-01-10T18:13:58;5.40;99.90
10905;DHT22;5505;51.450;9.254;2023-01-10T18:17:09;5.40;99.90
10905;DHT22;5505;51.450;9.254;2023-01-10T18:19:56;5.40;99.90
10905;DHT22;5505;51.450;9.254;2023-01-10T18:22:43;5.40;99.90
10905;DHT22;5505;51.450;9.254;2023-01-10T18:25:52;5.40;99.90
10905;DHT22;5505;51.450;9.254;2023-01-10T18:28:41;5.30;99.90
10905;DHT22;5505;51.450;9.254;2023-01-10T18:31:28;5.30;99.90
10905;DHT22;5505;51.450;9.254;2023-01-10T18:34:16;5.60;99.90
10905;DHT22;5505;51.450;9.254;2023-01-10T18:37:03;7.00;99.90
10905;DHT22;5505;51.450;9.254;2023-01-10T18:39:50;5.30;99.90
10905;DHT22;5505;51.450;9.254;2023-01-10T18:42:37;5.60;99.90
10905;DHT22;5505;51.450;9.254;2023-01-10T18:45:25;6.20;99.90
10905;DHT22;5505;51.450;9.254;2023-01-10T18:48:14;5.20;99.90
10905;DHT22;5505;51.450;9.254;2023-01-10T18:51:04;5.10;99.90
10905;DHT22;5505;51.450;9.254;2023-01-10T18:53:51;5.10;99.90
10905;DHT22;5505;51.450;9.254;2023-01-10T18:56:38;5.10;99.90
10905;DHT22;5505;51.450;9.254;2023-01-10T18:59:25;5.10;99.90
10905;DHT22;5505;51.450;9.254;2023-01-10T19:02:12;5.10;99.90
10905;DHT22;5505;51.450;9.254;2023-01-10T19:04:59;5.10;99.90
10905;DHT22;5505;51.450;9.254;2023-01-10T19:07:49;5.10;99.90
10905;DHT22;5505;51.450;9.254;2023-01-10T19:10:36;5.10;99.90
10905;DHT22;5505;51.450;9.254;2023-01-10T19:13:23;5.10;99.90
10905;DHT22;5505;51.450;9.254;2023-01-10T19:16:11;6.80;99.90
10905;DHT22;5505;51.450;9.254;2023-01-10T19:19:00;5.10;99.90
10905;DHT22;5505;51.450;9.254;2023-01-10T19:21:48;5.10;99.90
10905;DHT22;5505;51.450;9.254;2023-01-10T19:24:36;5.10;99.90
10905;DHT22;5505;51.450;9.254;2023-01-10T19:27:23;5.20;99.90
10905;DHT22;5505;51.450;9.254;2023-01-10T19:30:10;5.40;99.90
10905;DHT22;5505;51.450;9.254;2023-01-10T19:32:57;5.10;99.90
10905;DHT22;5505;51.450;9.254;2023-01-10T19:35:44;5.10;99.90
10905;DHT22;5505;51.450;9.254;2023-01-10T19:38:31;5.10;99.90
10905;DHT22;5505;51.450;9.254;2023-01-10T19:41:19;5.10;99.90
10905;DHT22;5505;51.450;9.254;2023-01-10T19:44:09;5.20;99.90
10905;DHT22;5505;51.450;9.254;2023-01-10T19:46:56;5.40;99.90